Fort Myers, FL

6:32 PM EST on November 25, 2014 (GMT -0500)
Orangewood | Change Station
CLOSE
Current Station
Personal Weather Station
Location: Fort Myers, FL
Elevation: 20 ft
Nearby Weather Stations

Elev 20 ft 26.60 °N, 81.88 °W | Updated 3 seconds ago

Overcast
Overcast
79.7 °F
Feels Like 85 °F
N
7.0
Wind Variable Wind from East
Gusts 13.0 mph

Today
High -- | Low -- °F
--% Chance of Precip.
Yesterday
High -- | Low -- °F
Precip. -- in
6:54 AM 5:34 PM
Waxing Crescent, 14% visible
Pressure 29.92 in
Visibility 10.0 miles
Clouds Scattered Clouds 3400 ft
Mostly Cloudy 6000 ft
Overcast 8000 ft
Heat Index 85 °F
Dew Point 76 °F
Humidity 89%
Rainfall 0.07 in
Snow Depth Not available.
UV 0 out of 12
Pollen .50 out of 12
Air Quality Not available.
Flu Activity Not available.
METAR KFMY 252253Z 20009KT 10SM SCT034 BKN060 OVC080 27/23 A2991 RMK AO2 SLP132 T02670233

More Conditions Fewer Conditions

Pressure 29.92 in
Visibility 10.0 miles
Clouds Scattered Clouds 3400 ft
Mostly Cloudy 6000 ft
Overcast 8000 ft
Heat Index 85 °F
Dew Point 76 °F
Humidity 89%
Rainfall 0.07 in
Snow Depth Not available.
UV 0 out of 12
Pollen .50 out of 12
Air Quality Not available.
Flu Activity Not available.
METAR KFMY 252253Z 20009KT 10SM SCT034 BKN060 OVC080 27/23 A2991 RMK AO2 SLP132 T02670233

More Conditions Fewer Conditions

10-Day Weather Forecast

Almanac

Astronomy

Nov. 25, 2014 Rise Set
Actual Time
Civil Twilight
Nautical Twilight
Astronomical Twilight
Moon
Length of Visible Light
Length of Day
Tomorrow will be .
, % of the Moon is Illuminated

Today's Extremes

State Highs State Lows

Community

WunderPhotos

Upload Photos

1,773,624 photos uploaded!

WunderBlogs® & News

Nearby

Air Quality

  Air Quality AQ Index Pollutant
Not available.

Snow Depth

Station Depth Elevation

Earthquake Activity

City Distance Mag. Time & Date
Minimum magnitude displayed is 2.5.

Coastal Water Temperatures

Place Temperature

Nearby Weather Stations